createdAt,value
2019-05-28T00:00:02.243Z,3.93
2019-05-28T00:02:27.442Z,4.27
2019-05-28T00:04:54.704Z,3.60
2019-05-28T00:07:21.909Z,4.10
2019-05-28T00:09:49.114Z,3.97
2019-05-28T00:12:16.394Z,3.80
2019-05-28T00:14:43.608Z,4.10
2019-05-28T00:17:10.871Z,4.20
2019-05-28T00:19:38.067Z,4.23
2019-05-28T00:22:05.335Z,4.10
2019-05-28T00:24:32.558Z,3.90
2019-05-28T00:26:59.753Z,4.03
2019-05-28T00:29:26.974Z,3.73
2019-05-28T00:31:54.151Z,3.70
2019-05-28T00:34:21.363Z,3.57
2019-05-28T00:36:48.556Z,3.30
2019-05-28T00:39:15.763Z,3.83
2019-05-28T00:41:42.949Z,4.10
2019-05-28T00:44:10.208Z,4.77
2019-05-28T00:46:37.403Z,4.27
2019-05-28T00:49:04.625Z,4.43
2019-05-28T00:51:31.820Z,5.23
2019-05-28T00:53:59.096Z,4.17
2019-05-28T00:56:26.301Z,4.30
2019-05-28T00:58:53.510Z,4.93
2019-05-28T01:01:20.806Z,4.70
2019-05-28T01:03:48.061Z,4.90
2019-05-28T01:06:15.273Z,5.07
2019-05-28T01:08:42.466Z,4.97
2019-05-28T01:11:09.753Z,4.67
2019-05-28T01:13:36.947Z,5.60
2019-05-28T01:16:04.173Z,5.87
2019-05-28T01:18:31.350Z,5.63
2019-05-28T01:20:58.553Z,5.47
2019-05-28T01:23:25.752Z,5.33
2019-05-28T01:25:52.952Z,5.13
2019-05-28T01:28:20.245Z,5.13
2019-05-28T01:30:56.104Z,4.90
2019-05-28T01:33:16.387Z,4.83
2019-05-28T01:35:43.671Z,4.23
2019-05-28T01:38:10.935Z,4.37
2019-05-28T01:40:38.135Z,4.30
2019-05-28T01:43:05.329Z,3.80
2019-05-28T01:45:32.547Z,5.03
2019-05-28T01:47:59.751Z,4.70
2019-05-28T01:50:26.963Z,3.57
2019-05-28T01:52:54.172Z,3.80
2019-05-28T01:55:21.348Z,4.23
2019-05-28T01:57:48.563Z,3.37
2019-05-28T02:00:17.258Z,3.87
2019-05-28T02:02:44.585Z,3.63
2019-05-28T02:05:11.843Z,3.73
2019-05-28T02:07:39.137Z,3.30
2019-05-28T02:10:06.316Z,3.63
2019-05-28T02:12:33.522Z,3.37
2019-05-28T02:15:00.739Z,3.20
2019-05-28T02:17:28.587Z,3.33
2019-05-28T02:19:55.783Z,2.67
2019-05-28T02:22:22.974Z,3.90
2019-05-28T02:24:50.178Z,3.27
2019-05-28T02:27:17.375Z,2.90
2019-05-28T02:29:44.571Z,2.53
2019-05-28T02:32:11.774Z,3.27
2019-05-28T02:34:38.985Z,2.90
2019-05-28T02:37:06.219Z,3.43
2019-05-28T02:39:33.407Z,2.90
2019-05-28T02:42:00.617Z,3.00
2019-05-28T02:44:27.820Z,2.80
2019-05-28T02:46:55.086Z,3.00
2019-05-28T02:49:22.276Z,2.57
2019-05-28T02:51:49.565Z,2.73
2019-05-28T02:54:16.789Z,3.17
2019-05-28T02:56:44.050Z,2.83
2019-05-28T02:59:12.900Z,3.33
2019-05-28T03:01:43.982Z,3.20
2019-05-28T03:04:09.426Z,3.33
2019-05-28T03:06:36.687Z,4.07
2019-05-28T03:09:05.583Z,2.93
2019-05-28T03:11:32.776Z,3.07
2019-05-28T03:13:59.967Z,3.57
2019-05-28T03:16:27.534Z,3.10
2019-05-28T03:18:54.785Z,2.73
2019-05-28T03:21:21.980Z,3.83
2019-05-28T03:23:49.203Z,3.03
2019-05-28T03:26:16.429Z,2.87
2019-05-28T03:28:43.621Z,2.87
2019-05-28T03:31:10.834Z,4.07
2019-05-28T03:33:38.119Z,2.90
2019-05-28T03:36:05.413Z,3.13
2019-05-28T03:38:32.751Z,2.80
2019-05-28T03:41:00.058Z,2.50
2019-05-28T03:43:27.387Z,3.57
2019-05-28T03:45:54.708Z,3.20
2019-05-28T03:48:21.988Z,3.17
2019-05-28T03:50:49.291Z,3.20
2019-05-28T03:53:16.618Z,3.07
2019-05-28T03:55:43.949Z,3.47
2019-05-28T03:58:11.239Z,3.10
2019-05-28T04:00:42.170Z,3.00
2019-05-28T04:03:09.431Z,3.73
2019-05-28T04:05:36.636Z,2.60
2019-05-28T04:08:04.176Z,2.83
2019-05-28T04:10:32.092Z,2.93
2019-05-28T04:12:59.313Z,3.17
2019-05-28T04:15:26.545Z,3.20
2019-05-28T04:17:53.802Z,3.30
2019-05-28T04:20:21.439Z,3.27
2019-05-28T04:22:48.646Z,2.97
2019-05-28T04:25:17.486Z,3.33
2019-05-28T04:27:44.687Z,2.97
2019-05-28T04:30:11.974Z,2.93
2019-05-28T04:32:41.333Z,3.03
2019-05-28T04:35:08.188Z,3.93
2019-05-28T04:37:35.395Z,3.33
2019-05-28T04:40:02.580Z,3.10
2019-05-28T04:42:29.810Z,3.30
2019-05-28T04:44:57.020Z,3.20
2019-05-28T04:47:24.227Z,2.63
2019-05-28T04:49:51.448Z,3.00
2019-05-28T04:52:18.731Z,3.10
2019-05-28T04:54:45.949Z,3.00
2019-05-28T04:57:13.213Z,3.27
2019-05-28T04:59:40.446Z,3.13
2019-05-28T05:02:07.645Z,3.33
2019-05-28T05:04:34.864Z,3.20
2019-05-28T05:07:02.084Z,2.70
2019-05-28T05:09:29.313Z,3.17
2019-05-28T05:11:56.581Z,3.40
2019-05-28T05:14:23.864Z,3.60
2019-05-28T05:16:51.060Z,2.60
2019-05-28T05:19:18.355Z,3.07
2019-05-28T05:21:45.616Z,3.10
2019-05-28T05:24:12.842Z,2.97
2019-05-28T05:26:40.028Z,2.87
2019-05-28T05:29:07.241Z,3.37
2019-05-28T05:31:34.458Z,3.07
2019-05-28T05:34:01.707Z,2.43
2019-05-28T05:36:28.917Z,3.27
2019-05-28T05:38:56.217Z,2.80
2019-05-28T05:41:23.404Z,3.30
2019-05-28T05:43:50.639Z,3.00
2019-05-28T05:46:17.896Z,3.03
2019-05-28T05:48:45.109Z,2.70
2019-05-28T05:51:12.359Z,2.77
2019-05-28T05:53:39.618Z,2.57
2019-05-28T05:56:06.846Z,3.87
2019-05-28T05:58:34.732Z,2.97
2019-05-28T06:01:01.933Z,2.90
2019-05-28T06:03:39.949Z,3.07
2019-05-28T06:05:58.145Z,3.07
2019-05-28T06:08:25.336Z,2.90
2019-05-28T06:10:52.603Z,2.50
2019-05-28T06:13:19.810Z,2.90
2019-05-28T06:15:47.101Z,2.83
2019-05-28T06:18:14.307Z,2.90
2019-05-28T06:20:41.563Z,4.10
2019-05-28T06:23:08.832Z,3.10
2019-05-28T06:25:36.063Z,3.27
2019-05-28T06:28:03.394Z,3.07
2019-05-28T06:30:30.632Z,3.10
2019-05-28T06:32:58.310Z,3.63
2019-05-28T06:35:25.491Z,2.53
2019-05-28T06:37:52.722Z,2.77
2019-05-28T06:40:19.929Z,2.57
2019-05-28T06:42:47.136Z,3.50
2019-05-28T06:45:14.359Z,2.60
2019-05-28T06:47:44.975Z,2.77
2019-05-28T06:50:12.146Z,2.47
2019-05-28T06:52:39.595Z,3.43
2019-05-28T06:55:07.436Z,3.07
2019-05-28T06:57:34.664Z,3.37
2019-05-28T07:00:01.851Z,3.37
2019-05-28T07:02:29.053Z,2.23
2019-05-28T07:04:56.251Z,3.10
2019-05-28T07:07:23.896Z,1.90
2019-05-28T07:09:51.170Z,2.43
2019-05-28T07:12:18.534Z,3.03
2019-05-28T07:14:46.437Z,1.87
2019-05-28T07:17:13.743Z,2.53
2019-05-28T07:19:41.002Z,2.43
2019-05-28T07:22:08.267Z,2.53
2019-05-28T07:24:35.492Z,2.03
2019-05-28T07:27:02.715Z,2.70
2019-05-28T07:29:30.025Z,2.27
2019-05-28T07:31:57.291Z,2.33
2019-05-28T07:34:30.649Z,2.20
2019-05-28T07:36:53.531Z,2.90
2019-05-28T07:39:20.741Z,1.77
2019-05-28T07:41:47.957Z,3.00
2019-05-28T07:44:15.139Z,2.90
2019-05-28T07:46:42.362Z,2.93
2019-05-28T07:49:09.644Z,1.77
2019-05-28T07:51:36.850Z,2.03
2019-05-28T07:54:04.109Z,2.07
2019-05-28T07:56:31.339Z,2.60
2019-05-28T07:58:58.656Z,1.93
2019-05-28T08:01:26.462Z,2.97
2019-05-28T08:03:53.681Z,2.77
2019-05-28T08:06:22.541Z,2.47
2019-05-28T08:08:50.746Z,2.90
2019-05-28T08:11:18.026Z,2.23
2019-05-28T08:13:45.306Z,2.23
2019-05-28T08:16:18.662Z,2.40
2019-05-28T08:18:41.436Z,2.00
2019-05-28T08:21:08.672Z,2.43
2019-05-28T08:23:35.880Z,3.07
2019-05-28T08:26:03.106Z,1.83
2019-05-28T08:28:30.378Z,2.33
2019-05-28T08:31:14.085Z,2.13
2019-05-28T08:33:26.917Z,2.20
2019-05-28T08:35:54.099Z,2.20
2019-05-28T08:38:21.359Z,2.87
2019-05-28T08:40:48.594Z,2.27
2019-05-28T08:43:15.783Z,3.00
2019-05-28T08:45:43.019Z,2.20
2019-05-28T08:48:10.274Z,2.57
2019-05-28T08:50:37.481Z,3.00
2019-05-28T08:53:04.707Z,2.87
2019-05-28T08:55:31.992Z,2.60
2019-05-28T08:58:01.579Z,2.60
2019-05-28T09:00:29.839Z,2.67
2019-05-28T09:02:57.034Z,2.63
2019-05-28T09:05:26.663Z,2.50
2019-05-28T09:07:53.241Z,2.10
2019-05-28T09:10:20.478Z,2.43
2019-05-28T09:12:47.708Z,2.43
2019-05-28T09:15:14.927Z,2.17
2019-05-28T09:17:42.133Z,2.00
2019-05-28T09:20:09.469Z,2.10
2019-05-28T09:22:36.678Z,2.40
2019-05-28T09:25:05.178Z,1.80
2019-05-28T09:27:32.364Z,1.90
2019-05-28T09:29:59.561Z,1.80
2019-05-28T09:32:26.786Z,1.40
2019-05-28T09:34:54.077Z,2.33
2019-05-28T09:37:21.345Z,2.03
2019-05-28T09:39:48.721Z,2.77
2019-05-28T09:42:15.924Z,2.03
2019-05-28T09:44:43.554Z,3.13
2019-05-28T09:47:10.838Z,2.40
2019-05-28T09:49:38.067Z,1.97
2019-05-28T09:52:05.352Z,2.60
2019-05-28T09:54:32.556Z,1.73
2019-05-28T09:56:59.760Z,2.20
2019-05-28T09:59:40.632Z,1.80
2019-05-28T10:01:56.314Z,2.07
2019-05-28T10:04:43.030Z,1.93
2019-05-28T10:06:52.621Z,1.43
2019-05-28T10:09:20.718Z,2.20
2019-05-28T10:11:47.958Z,2.17
2019-05-28T10:14:15.252Z,2.30
2019-05-28T10:16:42.464Z,2.20
2019-05-28T10:19:09.704Z,2.70
2019-05-28T10:21:36.910Z,1.97
2019-05-28T10:24:04.947Z,1.87
2019-05-28T10:26:32.151Z,2.03
2019-05-28T10:28:59.331Z,2.20
2019-05-28T10:31:26.536Z,3.20
2019-05-28T10:33:53.723Z,5.10
2019-05-28T10:36:35.391Z,3.43
2019-05-28T10:38:49.909Z,1.87
2019-05-28T10:41:17.211Z,1.40
2019-05-28T10:43:44.579Z,2.10
2019-05-28T10:46:11.840Z,3.07
2019-05-28T10:48:39.204Z,2.63
2019-05-28T10:51:06.406Z,1.93
2019-05-28T10:53:33.584Z,1.63
2019-05-28T10:56:00.788Z,1.97
2019-05-28T10:58:27.987Z,1.50
2019-05-28T11:00:55.184Z,1.43
2019-05-28T11:03:22.420Z,1.57
2019-05-28T11:05:49.675Z,1.93
2019-05-28T11:08:16.933Z,2.10
2019-05-28T11:10:44.198Z,1.90
2019-05-28T11:13:11.400Z,1.70
2019-05-28T11:15:38.609Z,1.43
2019-05-28T11:18:05.843Z,1.90
2019-05-28T11:20:33.050Z,2.20
2019-05-28T11:23:00.352Z,2.20
2019-05-28T11:25:27.550Z,2.13
2019-05-28T11:27:54.737Z,1.30
2019-05-28T11:30:21.979Z,1.70
2019-05-28T11:32:49.190Z,1.30
2019-05-28T11:35:17.104Z,1.30
2019-05-28T11:37:44.349Z,2.20
2019-05-28T11:40:12.281Z,1.40
2019-05-28T11:42:39.485Z,2.00
2019-05-28T11:45:08.001Z,1.77
2019-05-28T11:47:35.650Z,1.67
2019-05-28T11:50:04.275Z,1.93
2019-05-28T11:52:31.514Z,2.47
2019-05-28T11:54:58.773Z,1.50
2019-05-28T11:57:26.009Z,1.80
2019-05-28T11:59:53.217Z,1.70
2019-05-28T12:02:20.436Z,1.80
2019-05-28T12:04:47.704Z,2.07
2019-05-28T12:07:25.739Z,1.90
2019-05-28T12:09:44.289Z,2.30
2019-05-28T12:12:11.511Z,1.47
2019-05-28T12:14:38.773Z,1.67
2019-05-28T12:17:06.079Z,1.47
2019-05-28T12:19:33.349Z,1.90
2019-05-28T12:22:00.573Z,2.13
2019-05-28T12:24:28.767Z,1.57
2019-05-28T12:26:56.669Z,1.50
2019-05-28T12:29:23.993Z,1.83
2019-05-28T12:31:51.252Z,2.53
2019-05-28T12:34:18.559Z,2.73
2019-05-28T12:36:45.751Z,2.03
2019-05-28T12:39:12.992Z,1.80
2019-05-28T12:41:40.319Z,1.80
2019-05-28T12:44:07.573Z,1.53
2019-05-28T12:46:34.774Z,1.87
2019-05-28T12:49:01.994Z,2.10
2019-05-28T12:51:29.282Z,2.27
2019-05-28T12:53:56.818Z,1.70
2019-05-28T12:56:24.115Z,1.97
2019-05-28T12:58:51.980Z,2.10
2019-05-28T13:01:19.189Z,1.80
2019-05-28T13:03:46.479Z,1.93
2019-05-28T13:06:13.735Z,1.63
2019-05-28T13:08:40.949Z,2.17
2019-05-28T13:11:08.164Z,1.73
2019-05-28T13:13:35.363Z,1.57
2019-05-28T13:16:02.572Z,1.40
2019-05-28T13:18:29.834Z,1.83
2019-05-28T13:20:57.066Z,2.00
2019-05-28T13:23:24.256Z,1.70
2019-05-28T13:25:51.470Z,1.57
2019-05-28T13:28:18.688Z,2.17
2019-05-28T13:30:45.974Z,1.77
2019-05-28T13:33:13.175Z,1.93
2019-05-28T13:35:40.485Z,2.87
2019-05-28T13:38:23.499Z,1.40
2019-05-28T13:40:36.607Z,1.30
2019-05-28T13:43:03.858Z,1.67
2019-05-28T13:45:31.119Z,1.70
2019-05-28T13:47:58.322Z,1.30
2019-05-28T13:50:25.515Z,1.10
2019-05-28T13:52:52.755Z,1.27
2019-05-28T13:55:19.973Z,1.20
2019-05-28T13:57:47.240Z,1.60
2019-05-28T14:00:16.118Z,2.67
2019-05-28T14:02:46.377Z,1.60
2019-05-28T14:05:12.252Z,1.20
2019-05-28T14:07:39.458Z,1.30
2019-05-28T14:10:06.810Z,1.73
2019-05-28T14:12:34.080Z,1.60
2019-05-28T14:15:01.420Z,1.30
2019-05-28T14:17:28.990Z,1.20
2019-05-28T14:19:57.178Z,1.10
2019-05-28T14:22:33.470Z,1.33
2019-05-28T14:24:54.559Z,1.47
2019-05-28T14:27:21.842Z,2.07
2019-05-28T14:29:49.088Z,1.00
2019-05-28T14:32:16.326Z,1.20
2019-05-28T14:34:45.322Z,1.80
2019-05-28T14:37:12.616Z,1.50
2019-05-28T14:39:41.384Z,1.30
2019-05-28T14:42:08.826Z,1.30
2019-05-28T14:44:36.011Z,1.13
2019-05-28T14:47:03.657Z,1.87
2019-05-28T14:49:34.408Z,1.03
2019-05-28T14:52:01.600Z,1.10
2019-05-28T14:54:29.163Z,1.40
2019-05-28T14:56:56.461Z,1.40
2019-05-28T14:59:23.695Z,1.50
2019-05-28T15:01:50.988Z,1.43
2019-05-28T15:04:18.258Z,1.30
2019-05-28T15:06:45.474Z,2.03
2019-05-28T15:09:21.086Z,0.90
2019-05-28T15:11:41.623Z,1.20
2019-05-28T15:14:08.816Z,1.40
2019-05-28T15:16:36.050Z,1.00
2019-05-28T15:19:03.243Z,1.33
2019-05-28T15:21:30.467Z,1.30
2019-05-28T15:23:57.702Z,1.73
2019-05-28T15:26:24.914Z,0.90
2019-05-28T15:28:52.139Z,1.77
2019-05-28T15:31:19.444Z,1.50
2019-05-28T15:33:46.710Z,1.87
2019-05-28T15:36:13.930Z,1.37
2019-05-28T15:38:41.202Z,1.50
2019-05-28T15:41:08.421Z,1.20
2019-05-28T15:43:35.635Z,0.90
2019-05-28T15:46:02.830Z,1.53
2019-05-28T15:48:30.009Z,1.20
2019-05-28T15:50:57.232Z,1.03
2019-05-28T15:53:24.513Z,1.17
2019-05-28T15:55:51.730Z,1.13
2019-05-28T15:58:18.945Z,1.10
2019-05-28T16:00:46.206Z,1.20
2019-05-28T16:03:13.485Z,1.20
2019-05-28T16:05:40.684Z,1.10
2019-05-28T16:08:07.894Z,0.90
2019-05-28T16:10:35.091Z,1.40
2019-05-28T16:13:02.313Z,1.27
2019-05-28T16:15:29.529Z,1.10
2019-05-28T16:17:56.734Z,0.90
2019-05-28T16:20:23.935Z,0.90
2019-05-28T16:22:51.121Z,0.70
2019-05-28T16:25:18.399Z,0.93
2019-05-28T16:27:45.597Z,1.13
2019-05-28T16:30:13.506Z,1.23
2019-05-28T16:32:40.743Z,1.50
2019-05-28T16:35:08.006Z,1.00
2019-05-28T16:37:35.241Z,0.80
2019-05-28T16:40:14.460Z,1.33
2019-05-28T16:42:31.390Z,0.83
2019-05-28T16:44:58.654Z,0.90
2019-05-28T16:47:25.888Z,1.37
2019-05-28T16:49:53.179Z,0.80
2019-05-28T16:52:20.458Z,1.13
2019-05-28T16:54:47.752Z,1.97
2019-05-28T16:57:14.961Z,1.13
2019-05-28T16:59:42.264Z,0.93
2019-05-28T17:02:09.482Z,0.70
2019-05-28T17:04:36.732Z,1.00
2019-05-28T17:07:03.950Z,1.27
2019-05-28T17:09:31.139Z,1.13
2019-05-28T17:11:58.437Z,0.93
2019-05-28T17:14:27.138Z,1.00
2019-05-28T17:16:54.511Z,1.00
2019-05-28T17:19:21.798Z,0.90
2019-05-28T17:21:50.080Z,1.00
2019-05-28T17:24:17.289Z,1.00
2019-05-28T17:26:47.254Z,1.00
2019-05-28T17:29:14.472Z,1.10
2019-05-28T17:31:41.743Z,1.00
2019-05-28T17:34:08.966Z,1.07
2019-05-28T17:36:36.176Z,1.27
2019-05-28T17:39:05.310Z,0.87
2019-05-28T17:41:32.516Z,1.10
2019-05-28T17:43:59.713Z,0.90
2019-05-28T17:46:26.992Z,1.00
2019-05-28T17:48:54.983Z,1.00
2019-05-28T17:51:22.186Z,1.20
2019-05-28T17:53:49.396Z,1.37
2019-05-28T17:56:16.620Z,1.00
2019-05-28T17:58:43.906Z,1.10
2019-05-28T18:01:11.203Z,0.83
2019-05-28T18:03:38.518Z,0.93
2019-05-28T18:06:05.756Z,1.03
2019-05-28T18:08:32.967Z,0.87
2019-05-28T18:11:04.424Z,1.47
2019-05-28T18:13:29.223Z,1.00
2019-05-28T18:15:56.469Z,1.00
2019-05-28T18:18:23.681Z,0.70
2019-05-28T18:20:50.902Z,0.90
2019-05-28T18:23:18.118Z,0.90
2019-05-28T18:25:45.348Z,1.03
2019-05-28T18:28:12.644Z,0.97
2019-05-28T18:30:39.918Z,0.70
2019-05-28T18:33:07.147Z,2.20
2019-05-28T18:35:34.454Z,0.87
2019-05-28T18:38:03.609Z,2.13
2019-05-28T18:40:30.691Z,1.40
2019-05-28T18:42:57.991Z,1.30
2019-05-28T18:45:25.266Z,1.27
2019-05-28T18:47:52.566Z,0.73
2019-05-28T18:50:19.882Z,0.80
2019-05-28T18:52:47.146Z,0.77
2019-05-28T18:55:14.371Z,0.90
2019-05-28T18:57:41.663Z,1.27
2019-05-28T19:00:09.722Z,2.23
2019-05-28T19:02:36.910Z,1.33
2019-05-28T19:05:05.500Z,0.90
2019-05-28T19:07:32.676Z,1.00
2019-05-28T19:09:59.909Z,1.00
2019-05-28T19:12:27.117Z,0.80
2019-05-28T19:14:54.386Z,0.90
2019-05-28T19:17:21.612Z,0.90
2019-05-28T19:19:48.811Z,0.90
2019-05-28T19:22:16.073Z,0.90
2019-05-28T19:24:43.272Z,1.10
2019-05-28T19:27:10.486Z,1.10
2019-05-28T19:29:37.767Z,1.33
2019-05-28T19:32:04.963Z,1.27
2019-05-28T19:34:32.176Z,1.00
2019-05-28T19:37:00.753Z,1.07
2019-05-28T19:39:27.960Z,2.37
2019-05-28T19:41:55.216Z,1.10
2019-05-28T19:44:22.468Z,1.00
2019-05-28T19:46:49.768Z,0.80
2019-05-28T19:49:17.308Z,0.80
2019-05-28T19:51:44.534Z,1.00
2019-05-28T19:54:11.818Z,1.17
2019-05-28T19:56:39.073Z,1.20
2019-05-28T19:59:06.278Z,1.43
2019-05-28T20:01:34.126Z,1.13
2019-05-28T20:04:01.369Z,1.20
2019-05-28T20:06:28.663Z,1.20
2019-05-28T20:08:55.937Z,1.17
2019-05-28T20:11:23.263Z,1.50
2019-05-28T20:13:50.501Z,1.00
2019-05-28T20:16:19.369Z,0.80
2019-05-28T20:18:47.265Z,0.83
2019-05-28T20:21:17.788Z,0.80
2019-05-28T20:23:45.823Z,0.80
2019-05-28T20:26:13.769Z,1.20
2019-05-28T20:28:41.153Z,0.90
2019-05-28T20:31:08.955Z,0.80
2019-05-28T20:33:41.364Z,0.90
2019-05-28T20:36:10.271Z,0.97
2019-05-28T20:38:39.212Z,1.10
2019-05-28T20:41:10.125Z,0.90
2019-05-28T20:43:44.875Z,1.63
2019-05-28T20:46:13.770Z,1.10
2019-05-28T20:48:41.047Z,0.80
2019-05-28T20:51:19.642Z,0.93
2019-05-28T20:53:37.261Z,0.80
2019-05-28T20:56:04.606Z,1.20
2019-05-28T20:58:40.396Z,0.80
2019-05-28T21:01:00.827Z,0.90
2019-05-28T21:03:28.046Z,0.90
2019-05-28T21:05:55.340Z,0.87
2019-05-28T21:08:22.550Z,1.33
2019-05-28T21:10:50.989Z,0.80
2019-05-28T21:13:18.318Z,1.00
2019-05-28T21:15:45.547Z,0.83
2019-05-28T21:18:13.525Z,0.80
2019-05-28T21:20:40.801Z,1.13
2019-05-28T21:23:08.007Z,0.80
2019-05-28T21:25:35.225Z,0.83
2019-05-28T21:28:02.440Z,0.87
2019-05-28T21:30:29.710Z,0.97
2019-05-28T21:32:56.915Z,0.90
2019-05-28T21:35:24.096Z,1.00
2019-05-28T21:37:51.329Z,0.87
2019-05-28T21:40:18.560Z,0.73
2019-05-28T21:42:58.481Z,1.10
2019-05-28T21:45:17.242Z,0.90
2019-05-28T21:47:44.473Z,1.00
2019-05-28T21:50:11.655Z,0.80
2019-05-28T21:52:38.868Z,1.40
2019-05-28T21:55:06.548Z,0.90
2019-05-28T21:57:34.459Z,0.97
2019-05-28T22:00:02.350Z,0.80
2019-05-28T22:02:29.822Z,1.00
2019-05-28T22:04:57.327Z,1.00
2019-05-28T22:07:24.569Z,0.87
2019-05-28T22:09:51.750Z,0.93
2019-05-28T22:12:18.966Z,1.13
2019-05-28T22:14:46.167Z,0.80
2019-05-28T22:17:13.406Z,0.80
2019-05-28T22:19:40.602Z,1.33
2019-05-28T22:22:08.911Z,0.90
2019-05-28T22:24:36.726Z,0.80
2019-05-28T22:27:04.584Z,1.53
2019-05-28T22:29:31.839Z,1.10
2019-05-28T22:31:59.044Z,0.90
2019-05-28T22:34:26.317Z,0.90
2019-05-28T22:36:53.519Z,1.00
2019-05-28T22:39:20.731Z,1.13
2019-05-28T22:41:47.937Z,1.20
2019-05-28T22:44:15.148Z,0.70
2019-05-28T22:46:42.347Z,0.70
2019-05-28T22:49:09.569Z,1.60
2019-05-28T22:51:36.830Z,1.00
2019-05-28T22:54:04.291Z,1.00
2019-05-28T22:56:31.504Z,0.70
2019-05-28T22:58:58.775Z,0.90
2019-05-28T23:01:25.983Z,0.87
2019-05-28T23:03:53.186Z,1.63
2019-05-28T23:06:20.407Z,1.10
2019-05-28T23:08:47.596Z,0.87
2019-05-28T23:11:14.770Z,1.30
2019-05-28T23:13:46.733Z,1.37
2019-05-28T23:16:10.932Z,0.73
2019-05-28T23:18:38.253Z,1.00
2019-05-28T23:21:06.731Z,1.00
2019-05-28T23:23:34.306Z,0.90
2019-05-28T23:26:01.505Z,0.80
2019-05-28T23:28:28.709Z,0.90
2019-05-28T23:30:55.893Z,1.00
2019-05-28T23:33:23.086Z,1.53
2019-05-28T23:35:50.305Z,0.87
2019-05-28T23:38:17.510Z,0.90
2019-05-28T23:40:44.731Z,0.90
2019-05-28T23:43:11.997Z,0.70
2019-05-28T23:45:39.286Z,1.13
2019-05-28T23:48:08.552Z,1.67
2019-05-28T23:50:35.418Z,1.20
2019-05-28T23:53:02.676Z,1.37
2019-05-28T23:55:29.883Z,0.90
2019-05-28T23:57:57.169Z,0.97
